West Navigator — 3ERR2 — position and weather

sailwx.info

Track history (hours):
 
Tides and Currents Weather Stations Pressure Air Temp Water Temp Dewpoint Dewpoint Depression Visibility Wind Speed Wind Dir Waves Ship Positions

West Navigator

Last reported at 2015-Mar-01 06:00 UTC. Time now 2015-Mar-01 08:27 UTC.
Position N 60°42' E 005°06'.

Length 253 m; draft 15 m.

Type: Other ship. MMSI: 370144000.

Wind from 150 at 20 knots

Waves 0.5 meters (2 feet), 19 second period

Barometer 973.1 mb
Air temperature 6.8 ° C
Dewpoint 3.2 ° C

Date/timePositionNaut miles runAvg speedWind from/ knotsBaromVisibWave heightAir tempDewpointWater temp
2015-Mar-01 06:00N 60°42' E 005°06'0 0.0 150 / 20973.1 0.5 6.8 3.2
2015-Mar-01 03:00N 60°42' E 005°06'0 0.0 150 / 21977.9 0.5 5.8 3.8
2015-Mar-01 00:00N 60°42' E 005°06'0 0.0 160 / 23982.6 0.5 5.3 4.3
2015-Feb-28 21:00N 60°42' E 005°06'0 0.0 170 / 21986.5 0.5 5.8 5.2
2015-Feb-28 18:00N 60°42' E 005°06'0 0.0 180 / 18990.5 0.5 6.1 5.8
2015-Feb-28 12:10N 60°42' E 005°06'0 0.0 170 / 26994.6 0.5 4.6 4.5
2015-Feb-28 09:00N 60°42' E 005°06'0 0.0 170 / 27996.3 0.5 3.9 3.3
2015-Feb-28 06:00N 60°42' E 005°06'0 0.0 170 / 27998.6 0.5 4.4 2.8
2015-Feb-28 03:00N 60°42' E 005°06'0 0.0 170 / 261001.1 0.5 5.3 1.6
2015-Feb-28 00:00N 60°42' E 005°06'0 0.0 180 / 211004.6 0.5 5.5 2.9
2015-Feb-27 21:00N 60°42' E 005°06'0 0.0 190 / 161005.5 1.0 5.8 3.2
2015-Feb-27 18:00N 60°42' E 005°06'0 0.0 200 / 131006.0 1.0 5.2 3.7
2015-Feb-27 15:00N 60°42' E 005°06'0 0.0 200 / 191004.1 1.0 5.8 3.5
2015-Feb-27 09:00N 60°42' E 005°06'0 0.0 170 / 221002.8 0.5 4.8 1.7
2015-Feb-27 06:00N 60°42' E 005°06'0 0.0 160 / 161002.4 0.5 4.0 2.1
2015-Feb-27 03:00N 60°42' E 005°06'0 0.0 160 / 131001.7 0.5 3.9 2.7
2015-Feb-27 00:00N 60°42' E 005°06'0 0.0 170 / 151000.9 0.5 3.9 2.9
2015-Feb-26 21:00N 60°42' E 005°06'0 0.0 160 / 14999.9 1.0 3.7 3.0
2015-Feb-26 18:00N 60°42' E 005°06'0 0.0 150 / 10998.4 0.5 2.2 1.8
2015-Feb-26 15:00N 60°42' E 005°06'0 0.0 170 / 26995.5 0.5 4.0 3.2
2015-Feb-26 12:00N 60°42' E 005°06'0 0.0 160 / 24997.1 0.5 3.4 2.8
2015-Feb-26 06:00N 60°42' E 005°06'0 0.0 170 / 321000.2 1.0 5.4-0.4
2015-Feb-26 03:00N 60°42' E 005°06'0 0.0 170 / 301003.0 0.5 5.5 0.7
2015-Feb-26 00:00N 60°42' E 005°06'0 0.0 170 / 251006.8 0.5 5.4 2.1
2015-Feb-25 21:00N 60°42' E 005°06'0 0.0 160 / 151009.1 0.5 5.0 3.1
2015-Feb-25 18:00N 60°42' E 005°06'0 0.0 160 / 111009.2 1.0 5.0 3.4
2015-Feb-25 12:00N 60°42' E 005°06'0 0.0 180 / 41005.1 1.5 7.2 2.9
2015-Feb-25 09:00N 60°42' E 005°06'0 0.0 280 / 61001.1 1.0 5.2 1.9
2015-Feb-25 03:00N 60°42' E 005°06'0 0.0 170 / 14991.0 0.5 4.9 4.4
2015-Feb-25 00:00N 60°42' E 005°06'0 0.0 160 / 19989.0 0.5 3.8 2.9
2015-Feb-24 21:00N 60°42' E 005°06'0 0.0 160 / 18986.7 0.5 4.6 3.3
2015-Feb-24 18:00N 60°42' E 005°06'0 0.0 160 / 16984.5 0.5 3.2 2.6
2015-Feb-24 15:00N 60°42' E 005°06'0 0.0 130 / 16981.3 0.5 3.7 1.6
2015-Feb-24 09:00N 60°42' E 005°06'0 0.0 120 / 11980.1 0.5 5.5-3.0
2015-Feb-24 06:00N 60°42' E 005°06'0 0.0 130 / 14979.8 0.5 4.5-0.8
2015-Feb-24 03:00N 60°42' E 005°06'0 0.0 140 / 17979.0 0.5 4.5-0.7
2015-Feb-24 00:00N 60°42' E 005°06'0 0.0 160 / 23978.2 0.5 4.4 1.2
2015-Feb-23 21:00N 60°42' E 005°06'0 0.0 160 / 19977.5 0.5 4.0 2.1
2015-Feb-23 18:00N 60°42' E 005°06'0 0.0 160 / 20975.7 0.5 3.5 2.1
2015-Feb-23 12:00N 60°42' E 005°06'0 0.0 160 / 17973.7 0.5 3.8 2.0
2015-Feb-23 09:00N 60°42' E 005°06'0 0.0 220 / 16971.1 0.5 2.7 2.6
2015-Feb-23 06:00N 60°42' E 005°06'0 0.0 110 / 18967.9 0.5 3.1 1.1
2015-Feb-23 03:00N 60°42' E 005°06'0 0.0 130 / 16972.9 0.5 3.3 1.5
2015-Feb-23 00:00N 60°42' E 005°06'0 0.0 130 / 19977.1 0.5 2.6 0.9
2015-Feb-22 21:00N 60°42' E 005°06'0 0.0 130 / 20982.1 0.5 2.5-0.5
2015-Feb-22 18:00N 60°42' E 005°06'0 0.0 130 / 17987.5 0.5 1.8-0.5
2015-Feb-22 15:00N 60°42' E 005°06'0 0.0 160 / 14991.8 0.5 1.6 0.2
2015-Feb-22 09:00N 60°42' E 005°06'0 0.0 220 / 3994.2 1.0 2.3 1.1
2015-Feb-22 06:00N 60°42' E 005°06'0 0.0 320 / 6993.2 1.0 0.1-0.9
2015-Feb-22 03:00N 60°42' E 005°06'0 0.0 320 / 4992.8 1.0 0.9 0.5
2015-Feb-22 00:00N 60°42' E 005°06'0 0.0 340 / 3992.2 1.0 2.0-0.7
2015-Feb-21 21:00N 60°42' E 005°06'0 0.0 010 / 7991.2 0.5 2.0 1.5
2015-Feb-21 15:00N 60°42' E 005°06'0 0.0 150 / 11988.9 0.5 2.7 2.0
2015-Feb-21 12:00N 60°42' E 005°06'0 0.0 160 / 12988.6 0.5 2.3 1.7
2015-Feb-21 09:00N 60°42' E 005°06'0 0.0 170 / 13988.6 0.5 2.1 1.5
2015-Feb-21 06:10N 60°42' E 005°06'0 0.0 130 / 10987.6 1.0 2.0 1.8
2015-Feb-21 03:00N 60°42' E 005°06'0 0.0 150 / 13988.0 0.5 2.2 1.8
2015-Feb-21 00:00N 60°42' E 005°06'0 0.0 170 / 15988.8 0.5 3.0 2.5
2015-Feb-20 21:00N 60°42' E 005°06'0 0.0 150 / 12989.9 0.5 2.2 1.8
2015-Feb-20 15:00N 60°42' E 005°06'0 0.0 160 / 10991.7 0.5 3.1 2.2
2015-Feb-20 12:00N 60°42' E 005°06'0 0.0 200 / 11992.7 0.5 4.5 3.3
2015-Feb-20 09:00N 60°42' E 005°06'0 0.0 210 / 11994.2 0.5 4.4 3.0
2015-Feb-20 06:00N 60°42' E 005°06'0 0.0 200 / 10994.7 0.5 4.9 3.1
2015-Feb-20 03:00N 60°42' E 005°06'0 0.0 180 / 10996.1 0.5 3.8 2.9
2015-Feb-20 00:00N 60°42' E 005°06'0 0.0 220 / 12996.5 0.5 2.9 2.2
2015-Feb-19 21:00N 60°42' E 005°06'0 0.0 210 / 10997.6 0.5 6.0 4.7
2015-Feb-19 18:00N 60°42' E 005°06'0 0.0 200 / 12998.9 0.5 6.5 4.4
2015-Feb-19 09:00N 60°42' E 005°06'0 0.0 200 / 151002.8 0.5 7.5 6.8
2015-Feb-19 06:00N 60°42' E 005°06'   200 / 221002.7 0.5 6.8 6.8
Track history (hours):
 
Tides and Currents Weather Stations Pressure Air Temp Water Temp Dewpoint Dewpoint Depression Visibility Wind Speed Wind Dir Waves Ship Positions

West Navigator

Last reported at 2015-Mar-01 06:00 UTC. Time now 2015-Mar-01 08:27 UTC.
Position N 60°42' E 005°06'.

Length 253 m; draft 15 m.

Type: Other ship. MMSI: 370144000.

Wind from 150 at 20 knots

Waves 0.5 meters (2 feet), 19 second period

Barometer 973.1 mb
Air temperature 6.8 ° C
Dewpoint 3.2 ° C

Date/timePositionNaut miles runAvg speedWind from/ knotsBaromVisibWave heightAir tempDewpointWater temp
2015-Mar-01 06:00N 60°42' E 005°06'0 0.0 150 / 20973.1 0.5 6.8 3.2
2015-Mar-01 03:00N 60°42' E 005°06'0 0.0 150 / 21977.9 0.5 5.8 3.8
2015-Mar-01 00:00N 60°42' E 005°06'0 0.0 160 / 23982.6 0.5 5.3 4.3
2015-Feb-28 21:00N 60°42' E 005°06'0 0.0 170 / 21986.5 0.5 5.8 5.2
2015-Feb-28 18:00N 60°42' E 005°06'0 0.0 180 / 18990.5 0.5 6.1 5.8
2015-Feb-28 12:10N 60°42' E 005°06'0 0.0 170 / 26994.6 0.5 4.6 4.5
2015-Feb-28 09:00N 60°42' E 005°06'0 0.0 170 / 27996.3 0.5 3.9 3.3
2015-Feb-28 06:00N 60°42' E 005°06'0 0.0 170 / 27998.6 0.5 4.4 2.8
2015-Feb-28 03:00N 60°42' E 005°06'0 0.0 170 / 261001.1 0.5 5.3 1.6
2015-Feb-28 00:00N 60°42' E 005°06'0 0.0 180 / 211004.6 0.5 5.5 2.9
2015-Feb-27 21:00N 60°42' E 005°06'0 0.0 190 / 161005.5 1.0 5.8 3.2
2015-Feb-27 18:00N 60°42' E 005°06'0 0.0 200 / 131006.0 1.0 5.2 3.7
2015-Feb-27 15:00N 60°42' E 005°06'0 0.0 200 / 191004.1 1.0 5.8 3.5
2015-Feb-27 09:00N 60°42' E 005°06'0 0.0 170 / 221002.8 0.5 4.8 1.7
2015-Feb-27 06:00N 60°42' E 005°06'0 0.0 160 / 161002.4 0.5 4.0 2.1
2015-Feb-27 03:00N 60°42' E 005°06'0 0.0 160 / 131001.7 0.5 3.9 2.7
2015-Feb-27 00:00N 60°42' E 005°06'0 0.0 170 / 151000.9 0.5 3.9 2.9
2015-Feb-26 21:00N 60°42' E 005°06'0 0.0 160 / 14999.9 1.0 3.7 3.0
2015-Feb-26 18:00N 60°42' E 005°06'0 0.0 150 / 10998.4 0.5 2.2 1.8
2015-Feb-26 15:00N 60°42' E 005°06'0 0.0 170 / 26995.5 0.5 4.0 3.2
2015-Feb-26 12:00N 60°42' E 005°06'0 0.0 160 / 24997.1 0.5 3.4 2.8
2015-Feb-26 06:00N 60°42' E 005°06'0 0.0 170 / 321000.2 1.0 5.4-0.4
2015-Feb-26 03:00N 60°42' E 005°06'0 0.0 170 / 301003.0 0.5 5.5 0.7
2015-Feb-26 00:00N 60°42' E 005°06'0 0.0 170 / 251006.8 0.5 5.4 2.1
2015-Feb-25 21:00N 60°42' E 005°06'0 0.0 160 / 151009.1 0.5 5.0 3.1
2015-Feb-25 18:00N 60°42' E 005°06'0 0.0 160 / 111009.2 1.0 5.0 3.4
2015-Feb-25 12:00N 60°42' E 005°06'0 0.0 180 / 41005.1 1.5 7.2 2.9
2015-Feb-25 09:00N 60°42' E 005°06'0 0.0 280 / 61001.1 1.0 5.2 1.9
2015-Feb-25 03:00N 60°42' E 005°06'0 0.0 170 / 14991.0 0.5 4.9 4.4
2015-Feb-25 00:00N 60°42' E 005°06'0 0.0 160 / 19989.0 0.5 3.8 2.9
2015-Feb-24 21:00N 60°42' E 005°06'0 0.0 160 / 18986.7 0.5 4.6 3.3
2015-Feb-24 18:00N 60°42' E 005°06'0 0.0 160 / 16984.5 0.5 3.2 2.6
2015-Feb-24 15:00N 60°42' E 005°06'0 0.0 130 / 16981.3 0.5 3.7 1.6
2015-Feb-24 09:00N 60°42' E 005°06'0 0.0 120 / 11980.1 0.5 5.5-3.0
2015-Feb-24 06:00N 60°42' E 005°06'0 0.0 130 / 14979.8 0.5 4.5-0.8
2015-Feb-24 03:00N 60°42' E 005°06'0 0.0 140 / 17979.0 0.5 4.5-0.7
2015-Feb-24 00:00N 60°42' E 005°06'0 0.0 160 / 23978.2 0.5 4.4 1.2
2015-Feb-23 21:00N 60°42' E 005°06'0 0.0 160 / 19977.5 0.5 4.0 2.1
2015-Feb-23 18:00N 60°42' E 005°06'0 0.0 160 / 20975.7 0.5 3.5 2.1
2015-Feb-23 12:00N 60°42' E 005°06'0 0.0 160 / 17973.7 0.5 3.8 2.0
2015-Feb-23 09:00N 60°42' E 005°06'0 0.0 220 / 16971.1 0.5 2.7 2.6
2015-Feb-23 06:00N 60°42' E 005°06'0 0.0 110 / 18967.9 0.5 3.1 1.1
2015-Feb-23 03:00N 60°42' E 005°06'0 0.0 130 / 16972.9 0.5 3.3 1.5
2015-Feb-23 00:00N 60°42' E 005°06'0 0.0 130 / 19977.1 0.5 2.6 0.9
2015-Feb-22 21:00N 60°42' E 005°06'0 0.0 130 / 20982.1 0.5 2.5-0.5
2015-Feb-22 18:00N 60°42' E 005°06'0 0.0 130 / 17987.5 0.5 1.8-0.5
2015-Feb-22 15:00N 60°42' E 005°06'0 0.0 160 / 14991.8 0.5 1.6 0.2
2015-Feb-22 09:00N 60°42' E 005°06'0 0.0 220 / 3994.2 1.0 2.3 1.1
2015-Feb-22 06:00N 60°42' E 005°06'0 0.0 320 / 6993.2 1.0 0.1-0.9
2015-Feb-22 03:00N 60°42' E 005°06'0 0.0 320 / 4992.8 1.0 0.9 0.5
2015-Feb-22 00:00N 60°42' E 005°06'0 0.0 340 / 3992.2 1.0 2.0-0.7
2015-Feb-21 21:00N 60°42' E 005°06'0 0.0 010 / 7991.2 0.5 2.0 1.5
2015-Feb-21 15:00N 60°42' E 005°06'0 0.0 150 / 11988.9 0.5 2.7 2.0
2015-Feb-21 12:00N 60°42' E 005°06'0 0.0 160 / 12988.6 0.5 2.3 1.7
2015-Feb-21 09:00N 60°42' E 005°06'0 0.0 170 / 13988.6 0.5 2.1 1.5
2015-Feb-21 06:10N 60°42' E 005°06'0 0.0 130 / 10987.6 1.0 2.0 1.8
2015-Feb-21 03:00N 60°42' E 005°06'0 0.0 150 / 13988.0 0.5 2.2 1.8
2015-Feb-21 00:00N 60°42' E 005°06'0 0.0 170 / 15988.8 0.5 3.0 2.5
2015-Feb-20 21:00N 60°42' E 005°06'0 0.0 150 / 12989.9 0.5 2.2 1.8
2015-Feb-20 15:00N 60°42' E 005°06'0 0.0 160 / 10991.7 0.5 3.1 2.2
2015-Feb-20 12:00N 60°42' E 005°06'0 0.0 200 / 11992.7 0.5 4.5 3.3
2015-Feb-20 09:00N 60°42' E 005°06'0 0.0 210 / 11994.2 0.5 4.4 3.0
2015-Feb-20 06:00N 60°42' E 005°06'0 0.0 200 / 10994.7 0.5 4.9 3.1
2015-Feb-20 03:00N 60°42' E 005°06'0 0.0 180 / 10996.1 0.5 3.8 2.9
2015-Feb-20 00:00N 60°42' E 005°06'0 0.0 220 / 12996.5 0.5 2.9 2.2
2015-Feb-19 21:00N 60°42' E 005°06'0 0.0 210 / 10997.6 0.5 6.0 4.7
2015-Feb-19 18:00N 60°42' E 005°06'0 0.0 200 / 12998.9 0.5 6.5 4.4
2015-Feb-19 09:00N 60°42' E 005°06'0 0.0 200 / 151002.8 0.5 7.5 6.8
2015-Feb-19 06:00N 60°42' E 005°06'   200 / 221002.7 0.5 6.8 6.8

Dump ship's entire track history